West Monocacy, Pennsylvania
Current Conditions -  °F | °C
As of 9:54 AM on Friday 28 Nov 2014 (Local Time) from KPTW Reporting Station
Few Clouds Few Clouds  
Wind Chill: 26°   Ceiling: Unl
Heat Index: 34°   Visibility: 10mi
Dew Point: 21°   Wind: 10mph
Humidity: 59%   Direction: 310°NW
Pressure: 30.25"   Gusts: 18mph
Location:  40.2688°N, 75.7411°W
Report Text: KPTW 281454Z AUTO 31009G16KT 10SM FEW035 01/M06 A3025 RMK AO2 SLP243 T00111061 51022
Loading
Personal Weather Stations






























Interactive Weather Map New forecast layout! Learn more

10-Day Weather Forecast

Advertisements
Track Severe Weather on mobile